sensor_id;sensor_type;location;lat;lon;timestamp;P1;durP1;ratioP1;P2;durP2;ratioP2
29362;SDS011;16349;53.672;10.014;2022-07-10T00:00:33;5.13;;;0.80;;
29362;SDS011;16349;53.672;10.014;2022-07-10T00:03:01;1.97;;;0.60;;
29362;SDS011;16349;53.672;10.014;2022-07-10T00:05:29;3.53;;;0.93;;
29362;SDS011;16349;53.672;10.014;2022-07-10T00:07:56;1.63;;;0.40;;
29362;SDS011;16349;53.672;10.014;2022-07-10T00:10:23;1.73;;;0.90;;
29362;SDS011;16349;53.672;10.014;2022-07-10T00:12:50;6.30;;;1.00;;
29362;SDS011;16349;53.672;10.014;2022-07-10T00:15:19;3.73;;;0.73;;
29362;SDS011;16349;53.672;10.014;2022-07-10T00:17:46;2.80;;;1.13;;
29362;SDS011;16349;53.672;10.014;2022-07-10T00:20:13;3.60;;;0.73;;
29362;SDS011;16349;53.672;10.014;2022-07-10T00:22:41;5.33;;;1.33;;
29362;SDS011;16349;53.672;10.014;2022-07-10T00:25:09;2.80;;;0.57;;
29362;SDS011;16349;53.672;10.014;2022-07-10T00:27:37;3.50;;;1.30;;
29362;SDS011;16349;53.672;10.014;2022-07-10T00:30:05;1.87;;;0.40;;
29362;SDS011;16349;53.672;10.014;2022-07-10T00:32:34;2.20;;;0.90;;
29362;SDS011;16349;53.672;10.014;2022-07-10T00:35:01;4.67;;;1.10;;
29362;SDS011;16349;53.672;10.014;2022-07-10T00:37:28;4.60;;;0.90;;
29362;SDS011;16349;53.672;10.014;2022-07-10T00:39:55;4.55;;;0.85;;
29362;SDS011;16349;53.672;10.014;2022-07-10T00:42:22;3.83;;;1.23;;
29362;SDS011;16349;53.672;10.014;2022-07-10T00:44:49;2.97;;;0.70;;
29362;SDS011;16349;53.672;10.014;2022-07-10T00:47:16;4.57;;;0.70;;
29362;SDS011;16349;53.672;10.014;2022-07-10T00:49:46;7.17;;;0.87;;
29362;SDS011;16349;53.672;10.014;2022-07-10T00:52:14;2.67;;;0.70;;
29362;SDS011;16349;53.672;10.014;2022-07-10T00:54:43;4.27;;;1.43;;
29362;SDS011;16349;53.672;10.014;2022-07-10T00:57:12;5.67;;;0.87;;
29362;SDS011;16349;53.672;10.014;2022-07-10T00:59:40;6.03;;;0.97;;
29362;SDS011;16349;53.672;10.014;2022-07-10T01:02:07;6.83;;;1.23;;
29362;SDS011;16349;53.672;10.014;2022-07-10T01:04:35;4.95;;;1.42;;
29362;SDS011;16349;53.672;10.014;2022-07-10T01:07:04;2.73;;;0.90;;
29362;SDS011;16349;53.672;10.014;2022-07-10T01:09:31;2.30;;;1.00;;
29362;SDS011;16349;53.672;10.014;2022-07-10T01:11:59;7.10;;;0.80;;
29362;SDS011;16349;53.672;10.014;2022-07-10T01:14:27;5.90;;;1.17;;
29362;SDS011;16349;53.672;10.014;2022-07-10T01:16:54;3.90;;;1.05;;
29362;SDS011;16349;53.672;10.014;2022-07-10T01:19:21;6.90;;;1.17;;
29362;SDS011;16349;53.672;10.014;2022-07-10T01:21:50;2.67;;;1.07;;
29362;SDS011;16349;53.672;10.014;2022-07-10T01:24:17;6.37;;;1.60;;
29362;SDS011;16349;53.672;10.014;2022-07-10T01:26:43;4.33;;;0.80;;
29362;SDS011;16349;53.672;10.014;2022-07-10T01:29:10;3.40;;;0.80;;
29362;SDS011;16349;53.672;10.014;2022-07-10T01:31:37;7.00;;;1.03;;
29362;SDS011;16349;53.672;10.014;2022-07-10T01:34:06;2.23;;;0.93;;
29362;SDS011;16349;53.672;10.014;2022-07-10T01:36:34;3.67;;;0.90;;
29362;SDS011;16349;53.672;10.014;2022-07-10T01:39:04;4.60;;;1.27;;
29362;SDS011;16349;53.672;10.014;2022-07-10T01:41:31;3.63;;;1.50;;
29362;SDS011;16349;53.672;10.014;2022-07-10T01:43:59;3.83;;;1.00;;
29362;SDS011;16349;53.672;10.014;2022-07-10T01:46:26;6.03;;;1.13;;
29362;SDS011;16349;53.672;10.014;2022-07-10T01:48:53;7.30;;;1.20;;
29362;SDS011;16349;53.672;10.014;2022-07-10T01:51:20;3.47;;;1.03;;
29362;SDS011;16349;53.672;10.014;2022-07-10T01:53:47;3.37;;;0.93;;
29362;SDS011;16349;53.672;10.014;2022-07-10T01:56:15;2.60;;;0.80;;
29362;SDS011;16349;53.672;10.014;2022-07-10T01:58:42;6.63;;;1.40;;
29362;SDS011;16349;53.672;10.014;2022-07-10T02:01:10;5.70;;;1.33;;
29362;SDS011;16349;53.672;10.014;2022-07-10T02:03:37;8.73;;;1.33;;
29362;SDS011;16349;53.672;10.014;2022-07-10T02:06:21;7.33;;;1.80;;
29362;SDS011;16349;53.672;10.014;2022-07-10T02:08:47;5.37;;;1.50;;
29362;SDS011;16349;53.672;10.014;2022-07-10T02:11:16;3.27;;;1.00;;
29362;SDS011;16349;53.672;10.014;2022-07-10T02:13:43;4.97;;;1.10;;
29362;SDS011;16349;53.672;10.014;2022-07-10T02:16:10;5.27;;;1.50;;
29362;SDS011;16349;53.672;10.014;2022-07-10T02:18:37;3.27;;;1.17;;
29362;SDS011;16349;53.672;10.014;2022-07-10T02:21:05;7.00;;;1.60;;
29362;SDS011;16349;53.672;10.014;2022-07-10T02:23:32;5.03;;;1.10;;
29362;SDS011;16349;53.672;10.014;2022-07-10T02:25:59;4.63;;;1.10;;
29362;SDS011;16349;53.672;10.014;2022-07-10T02:28:27;5.60;;;1.47;;
29362;SDS011;16349;53.672;10.014;2022-07-10T02:30:54;4.83;;;1.30;;
29362;SDS011;16349;53.672;10.014;2022-07-10T02:33:21;6.00;;;1.50;;
29362;SDS011;16349;53.672;10.014;2022-07-10T02:35:48;8.30;;;1.37;;
29362;SDS011;16349;53.672;10.014;2022-07-10T02:38:15;7.93;;;1.20;;
29362;SDS011;16349;53.672;10.014;2022-07-10T02:40:41;6.20;;;1.40;;
29362;SDS011;16349;53.672;10.014;2022-07-10T02:43:08;8.53;;;1.20;;
29362;SDS011;16349;53.672;10.014;2022-07-10T02:45:36;4.43;;;1.33;;
29362;SDS011;16349;53.672;10.014;2022-07-10T02:48:04;10.23;;;1.83;;
29362;SDS011;16349;53.672;10.014;2022-07-10T02:50:31;5.30;;;1.53;;
29362;SDS011;16349;53.672;10.014;2022-07-10T02:52:58;6.80;;;1.30;;
29362;SDS011;16349;53.672;10.014;2022-07-10T02:55:24;6.77;;;1.57;;
29362;SDS011;16349;53.672;10.014;2022-07-10T02:57:52;7.20;;;1.60;;
29362;SDS011;16349;53.672;10.014;2022-07-10T03:00:19;9.80;;;1.60;;
29362;SDS011;16349;53.672;10.014;2022-07-10T03:02:47;5.97;;;1.50;;
29362;SDS011;16349;53.672;10.014;2022-07-10T03:05:14;6.53;;;1.53;;
29362;SDS011;16349;53.672;10.014;2022-07-10T03:07:41;4.47;;;1.50;;
29362;SDS011;16349;53.672;10.014;2022-07-10T03:10:08;7.00;;;1.50;;
29362;SDS011;16349;53.672;10.014;2022-07-10T03:12:35;8.50;;;1.70;;
29362;SDS011;16349;53.672;10.014;2022-07-10T03:15:03;10.90;;;1.80;;
29362;SDS011;16349;53.672;10.014;2022-07-10T03:17:31;7.77;;;1.67;;
29362;SDS011;16349;53.672;10.014;2022-07-10T03:19:59;2.73;;;1.43;;
29362;SDS011;16349;53.672;10.014;2022-07-10T03:22:26;6.50;;;1.93;;
29362;SDS011;16349;53.672;10.014;2022-07-10T03:24:53;9.43;;;1.90;;
29362;SDS011;16349;53.672;10.014;2022-07-10T03:27:20;7.03;;;1.70;;
29362;SDS011;16349;53.672;10.014;2022-07-10T03:29:47;6.80;;;1.70;;
29362;SDS011;16349;53.672;10.014;2022-07-10T03:32:13;7.63;;;2.10;;
29362;SDS011;16349;53.672;10.014;2022-07-10T03:34:41;9.63;;;1.97;;
29362;SDS011;16349;53.672;10.014;2022-07-10T03:37:09;8.83;;;1.83;;
29362;SDS011;16349;53.672;10.014;2022-07-10T03:39:36;8.63;;;2.63;;
29362;SDS011;16349;53.672;10.014;2022-07-10T03:42:03;8.90;;;2.30;;
29362;SDS011;16349;53.672;10.014;2022-07-10T03:44:31;4.20;;;1.63;;
29362;SDS011;16349;53.672;10.014;2022-07-10T03:46:58;7.40;;;1.97;;
29362;SDS011;16349;53.672;10.014;2022-07-10T03:49:25;12.17;;;2.27;;
29362;SDS011;16349;53.672;10.014;2022-07-10T03:51:52;9.87;;;2.20;;
29362;SDS011;16349;53.672;10.014;2022-07-10T03:54:20;7.03;;;2.00;;
29362;SDS011;16349;53.672;10.014;2022-07-10T03:56:48;12.97;;;2.60;;
29362;SDS011;16349;53.672;10.014;2022-07-10T03:59:32;8.93;;;1.77;;
29362;SDS011;16349;53.672;10.014;2022-07-10T04:01:59;8.83;;;2.80;;
29362;SDS011;16349;53.672;10.014;2022-07-10T04:04:26;7.20;;;1.73;;
29362;SDS011;16349;53.672;10.014;2022-07-10T04:06:53;11.27;;;2.17;;
29362;SDS011;16349;53.672;10.014;2022-07-10T04:09:21;14.13;;;2.20;;
29362;SDS011;16349;53.672;10.014;2022-07-10T04:11:48;11.10;;;2.63;;
29362;SDS011;16349;53.672;10.014;2022-07-10T04:14:15;9.37;;;2.07;;
29362;SDS011;16349;53.672;10.014;2022-07-10T04:16:42;10.20;;;2.20;;
29362;SDS011;16349;53.672;10.014;2022-07-10T04:19:09;7.23;;;1.70;;
29362;SDS011;16349;53.672;10.014;2022-07-10T04:21:36;9.97;;;2.10;;
29362;SDS011;16349;53.672;10.014;2022-07-10T04:24:03;8.33;;;2.07;;
29362;SDS011;16349;53.672;10.014;2022-07-10T04:26:32;9.63;;;3.23;;
29362;SDS011;16349;53.672;10.014;2022-07-10T04:28:58;11.23;;;2.73;;
29362;SDS011;16349;53.672;10.014;2022-07-10T04:31:25;12.73;;;2.67;;
29362;SDS011;16349;53.672;10.014;2022-07-10T04:33:51;7.43;;;2.00;;
29362;SDS011;16349;53.672;10.014;2022-07-10T04:36:18;15.17;;;2.20;;
29362;SDS011;16349;53.672;10.014;2022-07-10T04:38:45;6.90;;;2.00;;
29362;SDS011;16349;53.672;10.014;2022-07-10T04:41:13;6.53;;;2.20;;
29362;SDS011;16349;53.672;10.014;2022-07-10T04:43:41;11.43;;;2.10;;
29362;SDS011;16349;53.672;10.014;2022-07-10T04:46:08;10.37;;;3.60;;
29362;SDS011;16349;53.672;10.014;2022-07-10T04:48:35;11.00;;;2.43;;
29362;SDS011;16349;53.672;10.014;2022-07-10T04:51:02;10.57;;;1.87;;
29362;SDS011;16349;53.672;10.014;2022-07-10T04:53:29;9.93;;;2.20;;
29362;SDS011;16349;53.672;10.014;2022-07-10T04:55:55;8.40;;;2.10;;
29362;SDS011;16349;53.672;10.014;2022-07-10T04:58:23;7.53;;;1.80;;
29362;SDS011;16349;53.672;10.014;2022-07-10T05:00:51;6.90;;;3.23;;
29362;SDS011;16349;53.672;10.014;2022-07-10T05:03:18;12.43;;;2.77;;
29362;SDS011;16349;53.672;10.014;2022-07-10T05:05:44;13.13;;;3.03;;
29362;SDS011;16349;53.672;10.014;2022-07-10T05:08:11;11.57;;;2.80;;
29362;SDS011;16349;53.672;10.014;2022-07-10T05:10:38;10.57;;;2.33;;
29362;SDS011;16349;53.672;10.014;2022-07-10T05:13:05;9.07;;;2.63;;
29362;SDS011;16349;53.672;10.014;2022-07-10T05:15:33;7.90;;;2.17;;
29362;SDS011;16349;53.672;10.014;2022-07-10T05:18:01;9.20;;;2.20;;
29362;SDS011;16349;53.672;10.014;2022-07-10T05:20:31;12.43;;;3.37;;
29362;SDS011;16349;53.672;10.014;2022-07-10T05:22:59;8.27;;;2.43;;
29362;SDS011;16349;53.672;10.014;2022-07-10T05:25:26;10.30;;;2.23;;
29362;SDS011;16349;53.672;10.014;2022-07-10T05:27:55;9.73;;;2.97;;
29362;SDS011;16349;53.672;10.014;2022-07-10T05:30:22;9.50;;;2.77;;
29362;SDS011;16349;53.672;10.014;2022-07-10T05:32:49;13.97;;;2.70;;
29362;SDS011;16349;53.672;10.014;2022-07-10T05:35:17;6.23;;;1.90;;
29362;SDS011;16349;53.672;10.014;2022-07-10T05:37:45;11.03;;;2.53;;
29362;SDS011;16349;53.672;10.014;2022-07-10T05:40:11;11.53;;;2.40;;
29362;SDS011;16349;53.672;10.014;2022-07-10T05:42:38;10.77;;;2.50;;
29362;SDS011;16349;53.672;10.014;2022-07-10T05:45:06;8.80;;;2.23;;
29362;SDS011;16349;53.672;10.014;2022-07-10T05:47:34;9.90;;;2.33;;
29362;SDS011;16349;53.672;10.014;2022-07-10T05:50:01;14.80;;;3.27;;
29362;SDS011;16349;53.672;10.014;2022-07-10T05:52:29;8.20;;;2.50;;
29362;SDS011;16349;53.672;10.014;2022-07-10T05:54:56;9.93;;;2.13;;
29362;SDS011;16349;53.672;10.014;2022-07-10T05:57:23;11.60;;;2.73;;
29362;SDS011;16349;53.672;10.014;2022-07-10T05:59:50;6.25;;;2.30;;
29362;SDS011;16349;53.672;10.014;2022-07-10T06:02:17;10.07;;;2.03;;
29362;SDS011;16349;53.672;10.014;2022-07-10T06:04:45;10.90;;;2.60;;
29362;SDS011;16349;53.672;10.014;2022-07-10T06:07:11;17.20;;;2.57;;
29362;SDS011;16349;53.672;10.014;2022-07-10T06:09:39;9.33;;;2.50;;
29362;SDS011;16349;53.672;10.014;2022-07-10T06:12:08;9.13;;;2.07;;
29362;SDS011;16349;53.672;10.014;2022-07-10T06:14:35;8.67;;;2.30;;
29362;SDS011;16349;53.672;10.014;2022-07-10T06:17:02;12.47;;;2.60;;
29362;SDS011;16349;53.672;10.014;2022-07-10T06:19:29;12.17;;;2.30;;
29362;SDS011;16349;53.672;10.014;2022-07-10T06:21:56;14.33;;;2.30;;
29362;SDS011;16349;53.672;10.014;2022-07-10T06:24:41;12.93;;;2.67;;
29362;SDS011;16349;53.672;10.014;2022-07-10T06:27:08;9.27;;;2.20;;
29362;SDS011;16349;53.672;10.014;2022-07-10T06:29:35;14.30;;;2.53;;
29362;SDS011;16349;53.672;10.014;2022-07-10T06:32:02;9.47;;;2.20;;
29362;SDS011;16349;53.672;10.014;2022-07-10T06:34:29;7.40;;;2.10;;
29362;SDS011;16349;53.672;10.014;2022-07-10T06:36:56;9.63;;;2.63;;
29362;SDS011;16349;53.672;10.014;2022-07-10T06:39:23;10.77;;;2.17;;
29362;SDS011;16349;53.672;10.014;2022-07-10T06:41:51;10.52;;;2.25;;
29362;SDS011;16349;53.672;10.014;2022-07-10T06:44:18;8.17;;;2.03;;
29362;SDS011;16349;53.672;10.014;2022-07-10T06:46:44;7.83;;;1.93;;
29362;SDS011;16349;53.672;10.014;2022-07-10T06:49:32;8.00;;;2.20;;
29362;SDS011;16349;53.672;10.014;2022-07-10T06:51:58;7.53;;;1.87;;
29362;SDS011;16349;53.672;10.014;2022-07-10T06:54:25;9.67;;;1.63;;
29362;SDS011;16349;53.672;10.014;2022-07-10T06:56:53;9.93;;;2.30;;
29362;SDS011;16349;53.672;10.014;2022-07-10T06:59:20;9.20;;;2.17;;
29362;SDS011;16349;53.672;10.014;2022-07-10T07:01:47;9.43;;;2.00;;
29362;SDS011;16349;53.672;10.014;2022-07-10T07:04:13;9.30;;;2.45;;
29362;SDS011;16349;53.672;10.014;2022-07-10T07:06:40;8.80;;;1.43;;
29362;SDS011;16349;53.672;10.014;2022-07-10T07:09:07;11.17;;;2.30;;
29362;SDS011;16349;53.672;10.014;2022-07-10T07:11:33;5.30;;;2.33;;
29362;SDS011;16349;53.672;10.014;2022-07-10T07:14:02;11.43;;;2.13;;
29362;SDS011;16349;53.672;10.014;2022-07-10T07:16:28;8.90;;;1.77;;
29362;SDS011;16349;53.672;10.014;2022-07-10T07:19:06;11.23;;;2.53;;
29362;SDS011;16349;53.672;10.014;2022-07-10T07:21:35;7.67;;;2.03;;
29362;SDS011;16349;53.672;10.014;2022-07-10T07:24:20;8.13;;;1.83;;
29362;SDS011;16349;53.672;10.014;2022-07-10T07:26:46;5.87;;;1.80;;
29362;SDS011;16349;53.672;10.014;2022-07-10T07:29:15;11.57;;;2.00;;
29362;SDS011;16349;53.672;10.014;2022-07-10T07:31:43;16.40;;;2.23;;
29362;SDS011;16349;53.672;10.014;2022-07-10T07:34:10;6.73;;;1.97;;
29362;SDS011;16349;53.672;10.014;2022-07-10T07:36:37;8.70;;;1.73;;
29362;SDS011;16349;53.672;10.014;2022-07-10T07:39:04;7.10;;;1.47;;
29362;SDS011;16349;53.672;10.014;2022-07-10T07:41:31;7.77;;;1.73;;
29362;SDS011;16349;53.672;10.014;2022-07-10T07:43:58;7.03;;;1.63;;
29362;SDS011;16349;53.672;10.014;2022-07-10T07:46:26;6.47;;;1.83;;
29362;SDS011;16349;53.672;10.014;2022-07-10T07:48:53;7.70;;;2.20;;
29362;SDS011;16349;53.672;10.014;2022-07-10T07:51:19;11.37;;;1.87;;
29362;SDS011;16349;53.672;10.014;2022-07-10T07:53:46;10.10;;;2.30;;
29362;SDS011;16349;53.672;10.014;2022-07-10T07:56:13;8.80;;;1.90;;
29362;SDS011;16349;53.672;10.014;2022-07-10T07:58:40;11.83;;;2.20;;
29362;SDS011;16349;53.672;10.014;2022-07-10T08:01:07;8.73;;;1.80;;
29362;SDS011;16349;53.672;10.014;2022-07-10T08:03:35;8.40;;;1.80;;
29362;SDS011;16349;53.672;10.014;2022-07-10T08:06:02;6.53;;;1.40;;
29362;SDS011;16349;53.672;10.014;2022-07-10T08:08:29;7.37;;;1.80;;
29362;SDS011;16349;53.672;10.014;2022-07-10T08:10:56;4.13;;;1.60;;
29362;SDS011;16349;53.672;10.014;2022-07-10T08:13:23;6.60;;;1.90;;
29362;SDS011;16349;53.672;10.014;2022-07-10T08:15:50;6.00;;;1.67;;
29362;SDS011;16349;53.672;10.014;2022-07-10T08:18:17;8.97;;;1.73;;
29362;SDS011;16349;53.672;10.014;2022-07-10T08:20:45;8.30;;;1.33;;
29362;SDS011;16349;53.672;10.014;2022-07-10T08:23:12;9.10;;;1.83;;
29362;SDS011;16349;53.672;10.014;2022-07-10T08:25:39;3.77;;;1.40;;
29362;SDS011;16349;53.672;10.014;2022-07-10T08:28:06;5.20;;;1.43;;
29362;SDS011;16349;53.672;10.014;2022-07-10T08:30:35;4.73;;;1.20;;
29362;SDS011;16349;53.672;10.014;2022-07-10T08:33:01;7.17;;;1.50;;
29362;SDS011;16349;53.672;10.014;2022-07-10T08:35:28;3.70;;;1.30;;
29362;SDS011;16349;53.672;10.014;2022-07-10T08:37:57;7.00;;;1.23;;
29362;SDS011;16349;53.672;10.014;2022-07-10T08:40:24;4.63;;;1.70;;
29362;SDS011;16349;53.672;10.014;2022-07-10T08:42:51;3.10;;;1.20;;
29362;SDS011;16349;53.672;10.014;2022-07-10T08:45:18;3.50;;;1.43;;
29362;SDS011;16349;53.672;10.014;2022-07-10T08:47:46;5.30;;;1.13;;
29362;SDS011;16349;53.672;10.014;2022-07-10T08:50:16;6.30;;;1.40;;
29362;SDS011;16349;53.672;10.014;2022-07-10T08:52:47;4.00;;;1.37;;
29362;SDS011;16349;53.672;10.014;2022-07-10T08:55:23;5.03;;;1.27;;
29362;SDS011;16349;53.672;10.014;2022-07-10T08:57:51;3.73;;;0.80;;
29362;SDS011;16349;53.672;10.014;2022-07-10T09:00:20;5.20;;;1.13;;
29362;SDS011;16349;53.672;10.014;2022-07-10T09:02:47;4.13;;;1.67;;
29362;SDS011;16349;53.672;10.014;2022-07-10T09:05:14;3.60;;;1.20;;
29362;SDS011;16349;53.672;10.014;2022-07-10T09:07:41;7.43;;;1.60;;
29362;SDS011;16349;53.672;10.014;2022-07-10T09:10:09;5.40;;;1.47;;
29362;SDS011;16349;53.672;10.014;2022-07-10T09:12:51;6.70;;;1.43;;
29362;SDS011;16349;53.672;10.014;2022-07-10T09:15:21;3.37;;;1.33;;
29362;SDS011;16349;53.672;10.014;2022-07-10T09:17:49;5.00;;;1.10;;
29362;SDS011;16349;53.672;10.014;2022-07-10T09:20:24;9.30;;;1.40;;
29362;SDS011;16349;53.672;10.014;2022-07-10T09:22:52;4.30;;;1.03;;
29362;SDS011;16349;53.672;10.014;2022-07-10T09:25:19;4.40;;;1.50;;
29362;SDS011;16349;53.672;10.014;2022-07-10T09:27:54;7.10;;;1.37;;
29362;SDS011;16349;53.672;10.014;2022-07-10T09:30:30;9.90;;;1.97;;
29362;SDS011;16349;53.672;10.014;2022-07-10T09:33:14;3.30;;;1.20;;
29362;SDS011;16349;53.672;10.014;2022-07-10T09:35:59;9.17;;;1.80;;
29362;SDS011;16349;53.672;10.014;2022-07-10T09:38:49;6.50;;;1.30;;
29362;SDS011;16349;53.672;10.014;2022-07-10T09:41:18;6.27;;;1.10;;
29362;SDS011;16349;53.672;10.014;2022-07-10T09:43:49;4.87;;;1.90;;
29362;SDS011;16349;53.672;10.014;2022-07-10T09:46:17;6.37;;;1.43;;
29362;SDS011;16349;53.672;10.014;2022-07-10T09:48:45;5.23;;;1.50;;
29362;SDS011;16349;53.672;10.014;2022-07-10T09:51:12;7.63;;;1.47;;
29362;SDS011;16349;53.672;10.014;2022-07-10T09:53:40;7.27;;;1.40;;
29362;SDS011;16349;53.672;10.014;2022-07-10T09:56:09;3.40;;;1.20;;
29362;SDS011;16349;53.672;10.014;2022-07-10T09:58:37;4.67;;;1.33;;
29362;SDS011;16349;53.672;10.014;2022-07-10T10:01:06;3.93;;;1.23;;
29362;SDS011;16349;53.672;10.014;2022-07-10T10:03:34;4.13;;;1.50;;
29362;SDS011;16349;53.672;10.014;2022-07-10T10:06:03;5.70;;;1.23;;
29362;SDS011;16349;53.672;10.014;2022-07-10T10:08:37;4.77;;;1.20;;
29362;SDS011;16349;53.672;10.014;2022-07-10T10:11:16;8.43;;;1.30;;
29362;SDS011;16349;53.672;10.014;2022-07-10T10:13:46;6.87;;;1.67;;
29362;SDS011;16349;53.672;10.014;2022-07-10T10:16:16;4.77;;;1.17;;
29362;SDS011;16349;53.672;10.014;2022-07-10T10:18:46;6.07;;;1.10;;
29362;SDS011;16349;53.672;10.014;2022-07-10T10:21:31;7.67;;;1.50;;
29362;SDS011;16349;53.672;10.014;2022-07-10T10:24:01;6.17;;;1.20;;
29362;SDS011;16349;53.672;10.014;2022-07-10T10:26:28;4.37;;;1.20;;
29362;SDS011;16349;53.672;10.014;2022-07-10T10:28:56;4.17;;;1.27;;
29362;SDS011;16349;53.672;10.014;2022-07-10T10:31:26;5.63;;;1.00;;
29362;SDS011;16349;53.672;10.014;2022-07-10T10:33:54;4.17;;;1.20;;
29362;SDS011;16349;53.672;10.014;2022-07-10T10:39:11;5.27;;;1.30;;
29362;SDS011;16349;53.672;10.014;2022-07-10T10:41:42;7.30;;;1.00;;
29362;SDS011;16349;53.672;10.014;2022-07-10T10:44:19;5.63;;;1.30;;
29362;SDS011;16349;53.672;10.014;2022-07-10T10:46:59;4.70;;;0.80;;
29362;SDS011;16349;53.672;10.014;2022-07-10T10:49:52;4.57;;;1.10;;
29362;SDS011;16349;53.672;10.014;2022-07-10T10:52:27;4.37;;;1.23;;
29362;SDS011;16349;53.672;10.014;2022-07-10T10:57:43;3.23;;;1.10;;
29362;SDS011;16349;53.672;10.014;2022-07-10T11:00:13;7.03;;;1.10;;
29362;SDS011;16349;53.672;10.014;2022-07-10T11:05:43;5.70;;;1.30;;
29362;SDS011;16349;53.672;10.014;2022-07-10T11:08:11;5.07;;;1.00;;
29362;SDS011;16349;53.672;10.014;2022-07-10T11:10:39;4.33;;;0.97;;
29362;SDS011;16349;53.672;10.014;2022-07-10T11:13:08;2.23;;;0.90;;
29362;SDS011;16349;53.672;10.014;2022-07-10T11:15:36;4.03;;;0.90;;
29362;SDS011;16349;53.672;10.014;2022-07-10T11:18:03;3.73;;;1.00;;
29362;SDS011;16349;53.672;10.014;2022-07-10T11:20:33;3.00;;;1.17;;
29362;SDS011;16349;53.672;10.014;2022-07-10T11:23:06;6.07;;;1.43;;
29362;SDS011;16349;53.672;10.014;2022-07-10T11:25:45;4.80;;;1.10;;
29362;SDS011;16349;53.672;10.014;2022-07-10T11:28:28;5.17;;;1.03;;
29362;SDS011;16349;53.672;10.014;2022-07-10T11:31:07;4.70;;;0.93;;
29362;SDS011;16349;53.672;10.014;2022-07-10T11:33:38;3.53;;;1.10;;
29362;SDS011;16349;53.672;10.014;2022-07-10T11:36:10;6.90;;;0.97;;
29362;SDS011;16349;53.672;10.014;2022-07-10T11:38:39;2.90;;;1.07;;
29362;SDS011;16349;53.672;10.014;2022-07-10T11:41:11;4.03;;;1.50;;
29362;SDS011;16349;53.672;10.014;2022-07-10T11:43:46;4.30;;;1.17;;
29362;SDS011;16349;53.672;10.014;2022-07-10T11:46:16;5.73;;;1.20;;
29362;SDS011;16349;53.672;10.014;2022-07-10T11:48:44;1.53;;;1.00;;
29362;SDS011;16349;53.672;10.014;2022-07-10T11:51:22;4.47;;;1.00;;
29362;SDS011;16349;53.672;10.014;2022-07-10T11:53:55;3.60;;;1.27;;
29362;SDS011;16349;53.672;10.014;2022-07-10T11:56:23;4.57;;;1.37;;
29362;SDS011;16349;53.672;10.014;2022-07-10T11:58:57;5.03;;;1.00;;
29362;SDS011;16349;53.672;10.014;2022-07-10T12:01:25;5.80;;;1.70;;
29362;SDS011;16349;53.672;10.014;2022-07-10T12:03:55;5.60;;;1.30;;
29362;SDS011;16349;53.672;10.014;2022-07-10T12:06:24;4.97;;;1.00;;
29362;SDS011;16349;53.672;10.014;2022-07-10T12:08:51;5.77;;;0.90;;
29362;SDS011;16349;53.672;10.014;2022-07-10T12:11:19;3.90;;;0.90;;
29362;SDS011;16349;53.672;10.014;2022-07-10T12:13:47;3.13;;;1.30;;
29362;SDS011;16349;53.672;10.014;2022-07-10T12:16:15;4.53;;;0.90;;
29362;SDS011;16349;53.672;10.014;2022-07-10T12:18:42;5.17;;;1.33;;
29362;SDS011;16349;53.672;10.014;2022-07-10T12:21:10;6.37;;;1.20;;
29362;SDS011;16349;53.672;10.014;2022-07-10T12:23:39;3.07;;;0.80;;
29362;SDS011;16349;53.672;10.014;2022-07-10T12:26:08;3.10;;;1.00;;
29362;SDS011;16349;53.672;10.014;2022-07-10T12:28:51;5.17;;;1.00;;
29362;SDS011;16349;53.672;10.014;2022-07-10T12:31:21;4.57;;;0.83;;
29362;SDS011;16349;53.672;10.014;2022-07-10T12:33:52;5.10;;;1.50;;
29362;SDS011;16349;53.672;10.014;2022-07-10T12:36:23;6.13;;;1.30;;
29362;SDS011;16349;53.672;10.014;2022-07-10T12:38:56;4.40;;;1.27;;
29362;SDS011;16349;53.672;10.014;2022-07-10T12:41:24;3.93;;;1.30;;
29362;SDS011;16349;53.672;10.014;2022-07-10T12:43:52;5.53;;;1.27;;
29362;SDS011;16349;53.672;10.014;2022-07-10T12:46:20;7.63;;;1.20;;
29362;SDS011;16349;53.672;10.014;2022-07-10T12:49:01;6.80;;;1.30;;
29362;SDS011;16349;53.672;10.014;2022-07-10T12:51:30;3.77;;;1.00;;
29362;SDS011;16349;53.672;10.014;2022-07-10T12:53:59;7.27;;;1.17;;
29362;SDS011;16349;53.672;10.014;2022-07-10T12:56:27;3.07;;;0.90;;
29362;SDS011;16349;53.672;10.014;2022-07-10T12:58:54;4.00;;;1.03;;
29362;SDS011;16349;53.672;10.014;2022-07-10T13:01:22;6.50;;;2.03;;
29362;SDS011;16349;53.672;10.014;2022-07-10T13:03:54;5.37;;;1.20;;
29362;SDS011;16349;53.672;10.014;2022-07-10T13:06:28;6.77;;;1.27;;
29362;SDS011;16349;53.672;10.014;2022-07-10T13:08:56;6.23;;;1.33;;
29362;SDS011;16349;53.672;10.014;2022-07-10T13:11:24;5.57;;;1.27;;
29362;SDS011;16349;53.672;10.014;2022-07-10T13:13:52;4.23;;;1.10;;
29362;SDS011;16349;53.672;10.014;2022-07-10T13:16:21;2.30;;;1.20;;
29362;SDS011;16349;53.672;10.014;2022-07-10T13:18:49;5.77;;;1.20;;
29362;SDS011;16349;53.672;10.014;2022-07-10T13:21:16;5.37;;;1.10;;
29362;SDS011;16349;53.672;10.014;2022-07-10T13:23:43;4.33;;;1.03;;
29362;SDS011;16349;53.672;10.014;2022-07-10T13:26:10;6.17;;;1.47;;
29362;SDS011;16349;53.672;10.014;2022-07-10T13:28:38;4.37;;;1.23;;
29362;SDS011;16349;53.672;10.014;2022-07-10T13:31:04;5.13;;;1.57;;
29362;SDS011;16349;53.672;10.014;2022-07-10T13:33:32;4.53;;;1.50;;
29362;SDS011;16349;53.672;10.014;2022-07-10T13:36:00;4.40;;;1.27;;
29362;SDS011;16349;53.672;10.014;2022-07-10T13:38:27;4.90;;;1.10;;
29362;SDS011;16349;53.672;10.014;2022-07-10T13:40:54;3.83;;;1.33;;
29362;SDS011;16349;53.672;10.014;2022-07-10T13:43:21;3.97;;;0.83;;
29362;SDS011;16349;53.672;10.014;2022-07-10T13:45:57;4.23;;;1.30;;
29362;SDS011;16349;53.672;10.014;2022-07-10T13:48:25;8.00;;;1.00;;
29362;SDS011;16349;53.672;10.014;2022-07-10T13:50:52;6.87;;;1.57;;
29362;SDS011;16349;53.672;10.014;2022-07-10T13:53:20;6.30;;;1.20;;
29362;SDS011;16349;53.672;10.014;2022-07-10T13:55:47;6.47;;;1.30;;
29362;SDS011;16349;53.672;10.014;2022-07-10T13:58:14;7.30;;;1.67;;
29362;SDS011;16349;53.672;10.014;2022-07-10T14:00:43;5.33;;;1.50;;
29362;SDS011;16349;53.672;10.014;2022-07-10T14:03:12;5.87;;;1.03;;
29362;SDS011;16349;53.672;10.014;2022-07-10T14:05:39;4.00;;;1.23;;
29362;SDS011;16349;53.672;10.014;2022-07-10T14:08:06;4.23;;;1.30;;
29362;SDS011;16349;53.672;10.014;2022-07-10T14:10:32;6.10;;;1.40;;
29362;SDS011;16349;53.672;10.014;2022-07-10T14:13:00;5.60;;;1.10;;
29362;SDS011;16349;53.672;10.014;2022-07-10T14:15:27;3.07;;;0.83;;
29362;SDS011;16349;53.672;10.014;2022-07-10T14:17:54;7.90;;;1.73;;
29362;SDS011;16349;53.672;10.014;2022-07-10T14:20:22;6.50;;;1.47;;
29362;SDS011;16349;53.672;10.014;2022-07-10T14:22:49;4.83;;;1.17;;
29362;SDS011;16349;53.672;10.014;2022-07-10T14:25:16;4.00;;;1.03;;
29362;SDS011;16349;53.672;10.014;2022-07-10T14:27:45;5.80;;;1.60;;
29362;SDS011;16349;53.672;10.014;2022-07-10T14:30:12;3.47;;;1.17;;
29362;SDS011;16349;53.672;10.014;2022-07-10T14:32:39;3.10;;;1.47;;
29362;SDS011;16349;53.672;10.014;2022-07-10T14:35:06;3.43;;;0.97;;
29362;SDS011;16349;53.672;10.014;2022-07-10T14:37:36;6.17;;;1.67;;
29362;SDS011;16349;53.672;10.014;2022-07-10T14:40:03;4.70;;;1.33;;
29362;SDS011;16349;53.672;10.014;2022-07-10T14:42:31;5.80;;;1.27;;
29362;SDS011;16349;53.672;10.014;2022-07-10T14:44:57;4.20;;;1.37;;
29362;SDS011;16349;53.672;10.014;2022-07-10T14:47:25;9.83;;;1.53;;
29362;SDS011;16349;53.672;10.014;2022-07-10T14:49:54;3.60;;;1.00;;